sensor_id;sensor_type;location;lat;lon;timestamp;pressure;altitude;pressure_sealevel;temperature;humidity
48530;BME280;34927;37.302;-121.982;2023-04-03T00:00:13;101220.0;;;21.52;30.64
48530;BME280;34927;37.302;-121.982;2023-04-03T00:01:17;101222.0;;;21.54;30.70
48530;BME280;34927;37.302;-121.982;2023-04-03T00:02:21;101228.0;;;21.55;30.65
48530;BME280;34927;37.302;-121.982;2023-04-03T00:03:26;101227.0;;;21.43;30.77
48530;BME280;34927;37.302;-121.982;2023-04-03T00:04:31;101225.0;;;21.53;30.76
48530;BME280;34927;37.302;-121.982;2023-04-03T00:05:36;101225.0;;;21.66;30.61
48530;BME280;34927;37.302;-121.982;2023-04-03T00:06:42;101228.0;;;21.54;30.77
48530;BME280;34927;37.302;-121.982;2023-04-03T00:07:47;101231.0;;;21.54;30.80
48530;BME280;34927;37.302;-121.982;2023-04-03T00:08:52;101227.0;;;21.63;30.65
48530;BME280;34927;37.302;-121.982;2023-04-03T00:09:57;101228.0;;;21.73;30.65
48530;BME280;34927;37.302;-121.982;2023-04-03T00:11:02;101225.0;;;21.64;30.69
48530;BME280;34927;37.302;-121.982;2023-04-03T00:12:06;101222.0;;;21.77;30.65
48530;BME280;34927;37.302;-121.982;2023-04-03T00:13:12;101221.0;;;21.70;30.77
48530;BME280;34927;37.302;-121.982;2023-04-03T00:14:17;101221.0;;;21.75;30.91
48530;BME280;34927;37.302;-121.982;2023-04-03T00:15:22;101219.0;;;21.95;31.25
48530;BME280;34927;37.302;-121.982;2023-04-03T00:16:26;101218.0;;;21.83;31.05
48530;BME280;34927;37.302;-121.982;2023-04-03T00:17:33;101214.0;;;21.79;31.05
48530;BME280;34927;37.302;-121.982;2023-04-03T00:18:37;101213.0;;;21.71;31.26
48530;BME280;34927;37.302;-121.982;2023-04-03T00:19:41;101212.0;;;21.79;31.33
48530;BME280;34927;37.302;-121.982;2023-04-03T00:20:47;101214.0;;;21.81;31.45
48530;BME280;34927;37.302;-121.982;2023-04-03T00:21:52;101217.0;;;21.86;31.42
48530;BME280;34927;37.302;-121.982;2023-04-03T00:22:56;101220.0;;;21.95;32.08
48530;BME280;34927;37.302;-121.982;2023-04-03T00:24:01;101218.0;;;21.79;32.22
48530;BME280;34927;37.302;-121.982;2023-04-03T00:25:07;101218.0;;;21.99;32.07
48530;BME280;34927;37.302;-121.982;2023-04-03T00:26:12;101217.0;;;22.06;31.73
48530;BME280;34927;37.302;-121.982;2023-04-03T00:27:16;101213.0;;;22.12;31.60
48530;BME280;34927;37.302;-121.982;2023-04-03T00:28:21;101212.0;;;22.13;31.82
48530;BME280;34927;37.302;-121.982;2023-04-03T00:29:26;101213.0;;;22.32;32.42
48530;BME280;34927;37.302;-121.982;2023-04-03T00:30:32;101213.0;;;22.13;32.12
48530;BME280;34927;37.302;-121.982;2023-04-03T00:31:36;101210.0;;;22.18;32.63
48530;BME280;34927;37.302;-121.982;2023-04-03T00:32:42;101206.0;;;22.28;32.21
48530;BME280;34927;37.302;-121.982;2023-04-03T00:33:47;101204.0;;;22.14;32.08
48530;BME280;34927;37.302;-121.982;2023-04-03T00:34:51;101204.0;;;22.12;32.09
48530;BME280;34927;37.302;-121.982;2023-04-03T00:35:56;101203.0;;;22.08;32.36
48530;BME280;34927;37.302;-121.982;2023-04-03T00:37:01;101200.0;;;21.96;33.02
48530;BME280;34927;37.302;-121.982;2023-04-03T00:38:06;101200.0;;;21.82;33.42
48530;BME280;34927;37.302;-121.982;2023-04-03T00:39:12;101203.0;;;21.93;33.20
48530;BME280;34927;37.302;-121.982;2023-04-03T00:40:16;101202.0;;;21.73;33.57
48530;BME280;34927;37.302;-121.982;2023-04-03T00:41:21;101203.0;;;21.85;33.44
48530;BME280;34927;37.302;-121.982;2023-04-03T00:42:26;101202.0;;;21.74;33.66
48530;BME280;34927;37.302;-121.982;2023-04-03T00:43:32;101206.0;;;21.76;33.76
48530;BME280;34927;37.302;-121.982;2023-04-03T00:45:54;101206.0;;;21.86;33.33
48530;BME280;34927;37.302;-121.982;2023-04-03T00:46:56;101207.0;;;21.93;33.14
48530;BME280;34927;37.302;-121.982;2023-04-03T00:48:04;101203.0;;;21.93;33.20
48530;BME280;34927;37.302;-121.982;2023-04-03T00:49:07;101204.0;;;21.86;33.15
48530;BME280;34927;37.302;-121.982;2023-04-03T00:50:11;101203.0;;;21.83;32.88
48530;BME280;34927;37.302;-121.982;2023-04-03T00:51:25;101199.0;;;21.94;32.54
48530;BME280;34927;37.302;-121.982;2023-04-03T00:52:32;101198.0;;;21.75;32.84
48530;BME280;34927;37.302;-121.982;2023-04-03T00:53:41;101200.0;;;21.82;32.87
48530;BME280;34927;37.302;-121.982;2023-04-03T00:54:48;101195.0;;;21.83;32.83
48530;BME280;34927;37.302;-121.982;2023-04-03T00:55:53;101194.0;;;21.84;32.71
48530;BME280;34927;37.302;-121.982;2023-04-03T00:57:03;101192.0;;;21.81;32.72
48530;BME280;34927;37.302;-121.982;2023-04-03T00:58:07;101194.0;;;21.93;32.55
48530;BME280;34927;37.302;-121.982;2023-04-03T00:59:13;101190.0;;;21.89;32.57
48530;BME280;34927;37.302;-121.982;2023-04-03T01:00:23;101190.0;;;21.82;32.61
48530;BME280;34927;37.302;-121.982;2023-04-03T01:01:28;101189.0;;;21.90;32.44
48530;BME280;34927;37.302;-121.982;2023-04-03T01:02:31;101187.0;;;22.12;32.18
48530;BME280;34927;37.302;-121.982;2023-04-03T01:03:38;101188.0;;;22.43;31.74
48530;BME280;34927;37.302;-121.982;2023-04-03T01:04:43;101191.0;;;22.77;31.19
48530;BME280;34927;37.302;-121.982;2023-04-03T01:05:47;101187.0;;;23.12;30.61
48530;BME280;34927;37.302;-121.982;2023-04-03T01:06:57;101183.0;;;23.40;30.14
48530;BME280;34927;37.302;-121.982;2023-04-03T01:08:02;101182.0;;;23.75;29.67
48530;BME280;34927;37.302;-121.982;2023-04-03T01:09:07;101180.0;;;23.96;29.35
48530;BME280;34927;37.302;-121.982;2023-04-03T01:10:15;101186.0;;;24.10;29.05
48530;BME280;34927;37.302;-121.982;2023-04-03T01:11:22;101181.0;;;23.98;29.13
48530;BME280;34927;37.302;-121.982;2023-04-03T01:12:29;101181.0;;;23.95;29.23
48530;BME280;34927;37.302;-121.982;2023-04-03T01:13:33;101179.0;;;23.91;29.32
48530;BME280;34927;37.302;-121.982;2023-04-03T01:14:36;101182.0;;;23.59;29.73
48530;BME280;34927;37.302;-121.982;2023-04-03T01:15:41;101182.0;;;23.36;29.93
48530;BME280;34927;37.302;-121.982;2023-04-03T01:16:53;101181.0;;;23.28;30.05
48530;BME280;34927;37.302;-121.982;2023-04-03T01:17:58;101178.0;;;23.17;30.19
48530;BME280;34927;37.302;-121.982;2023-04-03T01:19:03;101173.0;;;23.02;30.36
48530;BME280;34927;37.302;-121.982;2023-04-03T01:22:47;101171.0;;;22.93;30.46
48530;BME280;34927;37.302;-121.982;2023-04-03T01:25:22;101164.0;;;23.39;30.02
48530;BME280;34927;37.302;-121.982;2023-04-03T01:26:27;101164.0;;;23.71;29.66
48530;BME280;34927;37.302;-121.982;2023-04-03T01:27:32;101166.0;;;23.96;29.22
48530;BME280;34927;37.302;-121.982;2023-04-03T01:28:37;101164.0;;;24.20;28.90
48530;BME280;34927;37.302;-121.982;2023-04-03T01:29:42;101166.0;;;24.44;28.63
48530;BME280;34927;37.302;-121.982;2023-04-03T01:30:50;101163.0;;;24.65;28.38
48530;BME280;34927;37.302;-121.982;2023-04-03T01:31:58;101164.0;;;24.61;28.31
48530;BME280;34927;37.302;-121.982;2023-04-03T01:33:01;101161.0;;;24.45;28.47
48530;BME280;34927;37.302;-121.982;2023-04-03T01:34:06;101162.0;;;24.40;28.63
48530;BME280;34927;37.302;-121.982;2023-04-03T01:35:12;101161.0;;;24.26;28.89
48530;BME280;34927;37.302;-121.982;2023-04-03T01:36:19;101161.0;;;24.09;29.06
48530;BME280;34927;37.302;-121.982;2023-04-03T01:37:26;101162.0;;;23.93;29.22
48530;BME280;34927;37.302;-121.982;2023-04-03T01:38:33;101162.0;;;23.77;29.34
48530;BME280;34927;37.302;-121.982;2023-04-03T01:39:37;101160.0;;;23.59;29.54
48530;BME280;34927;37.302;-121.982;2023-04-03T01:40:42;101158.0;;;23.47;29.69
48530;BME280;34927;37.302;-121.982;2023-04-03T01:41:47;101154.0;;;23.41;29.74
48530;BME280;34927;37.302;-121.982;2023-04-03T01:42:51;101155.0;;;23.28;29.93
48530;BME280;34927;37.302;-121.982;2023-04-03T01:43:56;101159.0;;;23.23;30.07
48530;BME280;34927;37.302;-121.982;2023-04-03T01:45:07;101157.0;;;23.13;30.20
48530;BME280;34927;37.302;-121.982;2023-04-03T01:46:12;101156.0;;;23.20;30.10
48530;BME280;34927;37.302;-121.982;2023-04-03T01:47:17;101155.0;;;23.09;30.24
48530;BME280;34927;37.302;-121.982;2023-04-03T01:48:22;101152.0;;;23.28;30.13
48530;BME280;34927;37.302;-121.982;2023-04-03T01:49:26;101152.0;;;23.05;30.59
48530;BME280;34927;37.302;-121.982;2023-04-03T01:50:31;101151.0;;;23.01;30.65
48530;BME280;34927;37.302;-121.982;2023-04-03T01:51:36;101155.0;;;23.18;30.67
48530;BME280;34927;37.302;-121.982;2023-04-03T01:52:41;101152.0;;;23.35;30.51
48530;BME280;34927;37.302;-121.982;2023-04-03T01:53:46;101154.0;;;23.53;30.29
48530;BME280;34927;37.302;-121.982;2023-04-03T01:54:51;101157.0;;;23.49;30.26
48530;BME280;34927;37.302;-121.982;2023-04-03T01:55:56;101157.0;;;23.50;30.24
48530;BME280;34927;37.302;-121.982;2023-04-03T01:57:01;101162.0;;;23.38;30.42
48530;BME280;34927;37.302;-121.982;2023-04-03T01:58:06;101161.0;;;23.21;30.67
48530;BME280;34927;37.302;-121.982;2023-04-03T01:59:12;101158.0;;;23.11;30.72
48530;BME280;34927;37.302;-121.982;2023-04-03T02:00:17;101156.0;;;23.08;30.74
48530;BME280;34927;37.302;-121.982;2023-04-03T02:01:21;101160.0;;;23.03;30.72
48530;BME280;34927;37.302;-121.982;2023-04-03T02:02:27;101158.0;;;23.04;30.74
48530;BME280;34927;37.302;-121.982;2023-04-03T02:03:32;101156.0;;;22.96;30.76
48530;BME280;34927;37.302;-121.982;2023-04-03T02:04:37;101154.0;;;22.96;30.88
48530;BME280;34927;37.302;-121.982;2023-04-03T02:05:41;101156.0;;;22.90;31.01
48530;BME280;34927;37.302;-121.982;2023-04-03T02:06:48;101153.0;;;22.91;31.02
48530;BME280;34927;37.302;-121.982;2023-04-03T02:07:52;101151.0;;;22.84;31.29
48530;BME280;34927;37.302;-121.982;2023-04-03T02:08:56;101150.0;;;22.84;31.31
48530;BME280;34927;37.302;-121.982;2023-04-03T02:10:02;101149.0;;;22.86;31.36
48530;BME280;34927;37.302;-121.982;2023-04-03T02:11:06;101152.0;;;22.82;31.42
48530;BME280;34927;37.302;-121.982;2023-04-03T02:12:11;101149.0;;;22.79;31.61
48530;BME280;34927;37.302;-121.982;2023-04-03T02:13:18;101147.0;;;22.71;31.85
48530;BME280;34927;37.302;-121.982;2023-04-03T02:14:21;101146.0;;;22.71;31.86
48530;BME280;34927;37.302;-121.982;2023-04-03T02:15:26;101144.0;;;22.70;32.09
48530;BME280;34927;37.302;-121.982;2023-04-03T02:16:31;101145.0;;;22.66;32.05
48530;BME280;34927;37.302;-121.982;2023-04-03T02:17:37;101143.0;;;22.66;32.14
48530;BME280;34927;37.302;-121.982;2023-04-03T02:18:42;101146.0;;;22.69;32.56
48530;BME280;34927;37.302;-121.982;2023-04-03T02:19:47;101142.0;;;22.66;32.52
48530;BME280;34927;37.302;-121.982;2023-04-03T02:20:52;101140.0;;;22.63;32.59
48530;BME280;34927;37.302;-121.982;2023-04-03T02:21:57;101139.0;;;22.58;32.68
48530;BME280;34927;37.302;-121.982;2023-04-03T02:23:02;101139.0;;;22.61;32.49
48530;BME280;34927;37.302;-121.982;2023-04-03T02:24:07;101142.0;;;22.60;32.70
48530;BME280;34927;37.302;-121.982;2023-04-03T02:25:12;101144.0;;;22.48;32.99
48530;BME280;34927;37.302;-121.982;2023-04-03T02:26:17;101141.0;;;22.45;32.97
48530;BME280;34927;37.302;-121.982;2023-04-03T02:27:22;101142.0;;;22.46;32.79
48530;BME280;34927;37.302;-121.982;2023-04-03T02:28:29;101138.0;;;22.49;32.93
48530;BME280;34927;37.302;-121.982;2023-04-03T02:29:36;101141.0;;;22.48;32.84
48530;BME280;34927;37.302;-121.982;2023-04-03T02:30:41;101140.0;;;22.42;32.96
48530;BME280;34927;37.302;-121.982;2023-04-03T02:31:47;101142.0;;;22.42;33.06
48530;BME280;34927;37.302;-121.982;2023-04-03T02:32:52;101134.0;;;22.44;33.14
48530;BME280;34927;37.302;-121.982;2023-04-03T02:33:56;101136.0;;;22.36;33.21
48530;BME280;34927;37.302;-121.982;2023-04-03T02:35:02;101137.0;;;22.32;33.41
48530;BME280;34927;37.302;-121.982;2023-04-03T02:36:07;101133.0;;;22.34;33.26
48530;BME280;34927;37.302;-121.982;2023-04-03T02:37:12;101128.0;;;22.37;33.18
48530;BME280;34927;37.302;-121.982;2023-04-03T02:38:16;101128.0;;;22.38;33.39
48530;BME280;34927;37.302;-121.982;2023-04-03T02:39:22;101127.0;;;22.33;33.46
48530;BME280;34927;37.302;-121.982;2023-04-03T02:40:26;101126.0;;;22.27;33.85
48530;BME280;34927;37.302;-121.982;2023-04-03T02:41:31;101124.0;;;22.34;33.45
48530;BME280;34927;37.302;-121.982;2023-04-03T02:42:37;101127.0;;;22.32;33.53
48530;BME280;34927;37.302;-121.982;2023-04-03T02:43:41;101126.0;;;22.31;33.53
48530;BME280;34927;37.302;-121.982;2023-04-03T02:44:46;101128.0;;;22.34;33.34
48530;BME280;34927;37.302;-121.982;2023-04-03T02:45:51;101127.0;;;22.29;33.55
48530;BME280;34927;37.302;-121.982;2023-04-03T02:46:56;101126.0;;;22.27;33.54
48530;BME280;34927;37.302;-121.982;2023-04-03T02:48:02;101125.0;;;22.23;33.52
48530;BME280;34927;37.302;-121.982;2023-04-03T02:49:06;101127.0;;;22.21;33.38
48530;BME280;34927;37.302;-121.982;2023-04-03T02:50:11;101129.0;;;22.20;33.43
48530;BME280;34927;37.302;-121.982;2023-04-03T02:51:17;101127.0;;;22.11;33.62
48530;BME280;34927;37.302;-121.982;2023-04-03T02:52:28;101125.0;;;22.22;33.39
48530;BME280;34927;37.302;-121.982;2023-04-03T02:53:31;101128.0;;;22.19;33.44
48530;BME280;34927;37.302;-121.982;2023-04-03T02:54:36;101127.0;;;22.20;33.41
48530;BME280;34927;37.302;-121.982;2023-04-03T02:55:41;101129.0;;;22.15;33.44
48530;BME280;34927;37.302;-121.982;2023-04-03T02:56:46;101131.0;;;22.17;33.42
48530;BME280;34927;37.302;-121.982;2023-04-03T02:57:52;101135.0;;;22.15;33.42
48530;BME280;34927;37.302;-121.982;2023-04-03T02:58:56;101132.0;;;22.13;33.40
48530;BME280;34927;37.302;-121.982;2023-04-03T03:00:02;101135.0;;;22.16;33.35
48530;BME280;34927;37.302;-121.982;2023-04-03T03:01:07;101132.0;;;22.06;33.48
48530;BME280;34927;37.302;-121.982;2023-04-03T03:02:12;101131.0;;;22.15;33.41
48530;BME280;34927;37.302;-121.982;2023-04-03T03:03:16;101131.0;;;22.13;33.36
48530;BME280;34927;37.302;-121.982;2023-04-03T03:04:22;101133.0;;;22.13;33.16
48530;BME280;34927;37.302;-121.982;2023-04-03T03:05:27;101131.0;;;22.06;33.37
48530;BME280;34927;37.302;-121.982;2023-04-03T03:06:31;101130.0;;;22.06;33.41
48530;BME280;34927;37.302;-121.982;2023-04-03T03:07:37;101130.0;;;22.06;33.38
48530;BME280;34927;37.302;-121.982;2023-04-03T03:08:42;101130.0;;;21.95;33.87
48530;BME280;34927;37.302;-121.982;2023-04-03T03:09:46;101127.0;;;21.89;33.91
48530;BME280;34927;37.302;-121.982;2023-04-03T03:10:51;101125.0;;;21.92;33.73
48530;BME280;34927;37.302;-121.982;2023-04-03T03:11:57;101126.0;;;21.93;33.74
48530;BME280;34927;37.302;-121.982;2023-04-03T03:13:02;101132.0;;;21.87;33.83
48530;BME280;34927;37.302;-121.982;2023-04-03T03:14:07;101130.0;;;21.95;33.63
48530;BME280;34927;37.302;-121.982;2023-04-03T03:15:12;101129.0;;;21.94;33.53
48530;BME280;34927;37.302;-121.982;2023-04-03T03:16:16;101131.0;;;21.95;33.52
48530;BME280;34927;37.302;-121.982;2023-04-03T03:17:21;101127.0;;;21.98;33.48
48530;BME280;34927;37.302;-121.982;2023-04-03T03:18:27;101127.0;;;22.00;33.85
48530;BME280;34927;37.302;-121.982;2023-04-03T03:19:33;101130.0;;;22.04;33.82
48530;BME280;34927;37.302;-121.982;2023-04-03T03:20:37;101128.0;;;21.97;33.83
48530;BME280;34927;37.302;-121.982;2023-04-03T03:21:41;101130.0;;;21.95;34.47
48530;BME280;34927;37.302;-121.982;2023-04-03T03:22:46;101130.0;;;21.91;34.31
48530;BME280;34927;37.302;-121.982;2023-04-03T03:23:51;101132.0;;;21.90;34.49
48530;BME280;34927;37.302;-121.982;2023-04-03T03:24:56;101132.0;;;21.88;34.70
48530;BME280;34927;37.302;-121.982;2023-04-03T03:26:04;101134.0;;;21.59;35.61
48530;BME280;34927;37.302;-121.982;2023-04-03T03:27:06;101134.0;;;21.59;35.64
48530;BME280;34927;37.302;-121.982;2023-04-03T03:28:12;101136.0;;;21.50;35.81
48530;BME280;34927;37.302;-121.982;2023-04-03T03:29:17;101132.0;;;21.55;35.91
48530;BME280;34927;37.302;-121.982;2023-04-03T03:30:27;101134.0;;;21.56;35.87
48530;BME280;34927;37.302;-121.982;2023-04-03T03:31:32;101132.0;;;21.75;35.51
48530;BME280;34927;37.302;-121.982;2023-04-03T03:32:37;101134.0;;;21.69;35.44
48530;BME280;34927;37.302;-121.982;2023-04-03T03:33:42;101137.0;;;21.56;35.73
48530;BME280;34927;37.302;-121.982;2023-04-03T03:34:47;101137.0;;;21.47;35.90
48530;BME280;34927;37.302;-121.982;2023-04-03T03:35:52;101135.0;;;21.51;35.88
48530;BME280;34927;37.302;-121.982;2023-04-03T03:36:57;101131.0;;;21.37;36.03
48530;BME280;34927;37.302;-121.982;2023-04-03T03:38:07;101135.0;;;21.42;36.04
48530;BME280;34927;37.302;-121.982;2023-04-03T03:39:11;101136.0;;;21.46;36.56
48530;BME280;34927;37.302;-121.982;2023-04-03T03:40:16;101136.0;;;21.61;36.05
48530;BME280;34927;37.302;-121.982;2023-04-03T03:41:22;101136.0;;;21.64;35.76
48530;BME280;34927;37.302;-121.982;2023-04-03T03:42:26;101134.0;;;21.61;35.84
48530;BME280;34927;37.302;-121.982;2023-04-03T03:43:31;101133.0;;;21.63;35.81
48530;BME280;34927;37.302;-121.982;2023-04-03T03:44:37;101134.0;;;21.71;35.53
48530;BME280;34927;37.302;-121.982;2023-04-03T03:45:42;101130.0;;;21.71;35.56
48530;BME280;34927;37.302;-121.982;2023-04-03T03:46:47;101132.0;;;21.81;35.46
48530;BME280;34927;37.302;-121.982;2023-04-03T03:47:51;101134.0;;;21.67;35.64
48530;BME280;34927;37.302;-121.982;2023-04-03T03:48:56;101135.0;;;21.85;35.29
48530;BME280;34927;37.302;-121.982;2023-04-03T03:50:01;101134.0;;;21.78;35.52
48530;BME280;34927;37.302;-121.982;2023-04-03T03:51:06;101133.0;;;21.84;35.27
48530;BME280;34927;37.302;-121.982;2023-04-03T03:52:11;101133.0;;;21.79;35.32
48530;BME280;34927;37.302;-121.982;2023-04-03T03:53:17;101135.0;;;21.78;35.43
48530;BME280;34927;37.302;-121.982;2023-04-03T03:54:22;101133.0;;;21.76;35.69
48530;BME280;34927;37.302;-121.982;2023-04-03T03:55:26;101133.0;;;21.77;35.68
48530;BME280;34927;37.302;-121.982;2023-04-03T03:56:33;101133.0;;;21.72;35.70
48530;BME280;34927;37.302;-121.982;2023-04-03T03:57:37;101136.0;;;21.86;35.76
48530;BME280;34927;37.302;-121.982;2023-04-03T03:58:41;101136.0;;;21.82;35.64
48530;BME280;34927;37.302;-121.982;2023-04-03T03:59:46;101137.0;;;21.78;35.87
48530;BME280;34927;37.302;-121.982;2023-04-03T04:00:52;101139.0;;;21.81;35.66
48530;BME280;34927;37.302;-121.982;2023-04-03T04:01:57;101144.0;;;21.92;35.38
48530;BME280;34927;37.302;-121.982;2023-04-03T04:03:02;101147.0;;;22.06;35.02
48530;BME280;34927;37.302;-121.982;2023-04-03T04:04:07;101148.0;;;22.33;34.48
48530;BME280;34927;37.302;-121.982;2023-04-03T04:05:12;101149.0;;;22.61;33.83
48530;BME280;34927;37.302;-121.982;2023-04-03T04:06:17;101154.0;;;22.91;33.20
48530;BME280;34927;37.302;-121.982;2023-04-03T04:07:21;101152.0;;;23.09;32.76
48530;BME280;34927;37.302;-121.982;2023-04-03T04:08:27;101151.0;;;23.36;32.27
48530;BME280;34927;37.302;-121.982;2023-04-03T04:09:32;101150.0;;;23.58;31.81
48530;BME280;34927;37.302;-121.982;2023-04-03T04:10:38;101150.0;;;23.73;31.41
48530;BME280;34927;37.302;-121.982;2023-04-03T04:11:41;101152.0;;;23.82;31.21
48530;BME280;34927;37.302;-121.982;2023-04-03T04:12:47;101154.0;;;23.67;31.33
48530;BME280;34927;37.302;-121.982;2023-04-03T04:13:52;101155.0;;;23.48;31.58
48530;BME280;34927;37.302;-121.982;2023-04-03T04:14:56;101159.0;;;23.32;31.95
48530;BME280;34927;37.302;-121.982;2023-04-03T04:16:01;101160.0;;;23.35;31.89
48530;BME280;34927;37.302;-121.982;2023-04-03T04:17:07;101161.0;;;23.16;32.01
48530;BME280;34927;37.302;-121.982;2023-04-03T04:18:12;101162.0;;;23.04;32.12
48530;BME280;34927;37.302;-121.982;2023-04-03T04:19:17;101166.0;;;22.93;32.28
48530;BME280;34927;37.302;-121.982;2023-04-03T04:20:22;101166.0;;;22.88;32.27
48530;BME280;34927;37.302;-121.982;2023-04-03T04:21:27;101167.0;;;22.86;32.33
48530;BME280;34927;37.302;-121.982;2023-04-03T04:22:32;101166.0;;;22.73;32.50
48530;BME280;34927;37.302;-121.982;2023-04-03T04:23:37;101168.0;;;22.82;32.53
48530;BME280;34927;37.302;-121.982;2023-04-03T04:24:42;101169.0;;;22.99;32.24
48530;BME280;34927;37.302;-121.982;2023-04-03T04:25:48;101169.0;;;23.27;31.88
48530;BME280;34927;37.302;-121.982;2023-04-03T04:26:51;101168.0;;;23.48;31.56
48530;BME280;34927;37.302;-121.982;2023-04-03T04:27:56;101169.0;;;23.74;31.14
48530;BME280;34927;37.302;-121.982;2023-04-03T04:29:01;101167.0;;;23.93;30.91
48530;BME280;34927;37.302;-121.982;2023-04-03T04:30:08;101169.0;;;24.08;30.66
48530;BME280;34927;37.302;-121.982;2023-04-03T04:31:11;101167.0;;;24.07;30.57
48530;BME280;34927;37.302;-121.982;2023-04-03T04:32:17;101171.0;;;23.99;30.71
48530;BME280;34927;37.302;-121.982;2023-04-03T04:33:22;101172.0;;;23.89;30.90
48530;BME280;34927;37.302;-121.982;2023-04-03T04:34:27;101178.0;;;23.65;31.33
48530;BME280;34927;37.302;-121.982;2023-04-03T04:35:31;101175.0;;;23.45;32.15
48530;BME280;34927;37.302;-121.982;2023-04-03T04:36:36;101174.0;;;23.46;32.05
48530;BME280;34927;37.302;-121.982;2023-04-03T04:37:42;101177.0;;;23.29;32.40
48530;BME280;34927;37.302;-121.982;2023-04-03T04:38:47;101173.0;;;23.38;32.29
48530;BME280;34927;37.302;-121.982;2023-04-03T04:39:51;101175.0;;;23.31;32.49
48530;BME280;34927;37.302;-121.982;2023-04-03T04:40:57;101173.0;;;23.19;32.78
48530;BME280;34927;37.302;-121.982;2023-04-03T04:42:02;101174.0;;;23.08;32.99
48530;BME280;34927;37.302;-121.982;2023-04-03T04:43:07;101171.0;;;23.08;33.02
48530;BME280;34927;37.302;-121.982;2023-04-03T04:44:11;101169.0;;;23.19;33.10
48530;BME280;34927;37.302;-121.982;2023-04-03T04:45:16;101169.0;;;23.38;32.86
48530;BME280;34927;37.302;-121.982;2023-04-03T04:46:22;101170.0;;;23.57;32.56
48530;BME280;34927;37.302;-121.982;2023-04-03T04:47:28;101170.0;;;23.89;32.02
48530;BME280;34927;37.302;-121.982;2023-04-03T04:48:32;101173.0;;;24.12;31.84
48530;BME280;34927;37.302;-121.982;2023-04-03T04:49:36;101177.0;;;24.36;31.46
48530;BME280;34927;37.302;-121.982;2023-04-03T04:50:42;101179.0;;;24.49;31.20
48530;BME280;34927;37.302;-121.982;2023-04-03T04:51:46;101182.0;;;24.50;31.11
48530;BME280;34927;37.302;-121.982;2023-04-03T04:52:51;101186.0;;;24.38;31.42
48530;BME280;34927;37.302;-121.982;2023-04-03T04:53:56;101185.0;;;24.23;31.65
48530;BME280;34927;37.302;-121.982;2023-04-03T04:55:02;101188.0;;;24.03;31.76
48530;BME280;34927;37.302;-121.982;2023-04-03T04:56:07;101189.0;;;23.87;31.94
48530;BME280;34927;37.302;-121.982;2023-04-03T04:57:12;101192.0;;;23.70;32.04
48530;BME280;34927;37.302;-121.982;2023-04-03T04:58:17;101192.0;;;23.61;32.16
48530;BME280;34927;37.302;-121.982;2023-04-03T04:59:22;101194.0;;;23.37;32.46
48530;BME280;34927;37.302;-121.982;2023-04-03T05:00:27;101192.0;;;23.37;32.38
48530;BME280;34927;37.302;-121.982;2023-04-03T05:01:32;101194.0;;;23.26;32.51
48530;BME280;34927;37.302;-121.982;2023-04-03T05:02:36;101193.0;;;23.15;32.60
48530;BME280;34927;37.302;-121.982;2023-04-03T05:03:42;101190.0;;;23.32;32.41
48530;BME280;34927;37.302;-121.982;2023-04-03T05:04:47;101190.0;;;23.23;32.55
48530;BME280;34927;37.302;-121.982;2023-04-03T05:05:52;101188.0;;;23.35;32.44
48530;BME280;34927;37.302;-121.982;2023-04-03T05:06:57;101188.0;;;23.58;32.17
48530;BME280;34927;37.302;-121.982;2023-04-03T05:08:07;101185.0;;;23.78;31.77
48530;BME280;34927;37.302;-121.982;2023-04-03T05:09:12;101185.0;;;24.01;31.32
48530;BME280;34927;37.302;-121.982;2023-04-03T05:10:16;101183.0;;;24.23;30.86
48530;BME280;34927;37.302;-121.982;2023-04-03T05:11:22;101183.0;;;24.44;30.48
48530;BME280;34927;37.302;-121.982;2023-04-03T05:12:27;101183.0;;;24.41;30.30
48530;BME280;34927;37.302;-121.982;2023-04-03T05:13:32;101184.0;;;24.32;30.37
48530;BME280;34927;37.302;-121.982;2023-04-03T05:14:37;101184.0;;;24.13;30.72
48530;BME280;34927;37.302;-121.982;2023-04-03T05:15:42;101185.0;;;23.91;31.04
48530;BME280;34927;37.302;-121.982;2023-04-03T05:16:46;101186.0;;;23.86;31.13
48530;BME280;34927;37.302;-121.982;2023-04-03T05:17:52;101189.0;;;23.75;31.12
48530;BME280;34927;37.302;-121.982;2023-04-03T05:18:57;101192.0;;;23.52;31.51
48530;BME280;34927;37.302;-121.982;2023-04-03T05:20:02;101193.0;;;23.47;31.51
48530;BME280;34927;37.302;-121.982;2023-04-03T05:21:06;101197.0;;;23.50;31.42
48530;BME280;34927;37.302;-121.982;2023-04-03T05:22:12;101200.0;;;23.45;31.40
48530;BME280;34927;37.302;-121.982;2023-04-03T05:23:17;101204.0;;;23.37;31.60
48530;BME280;34927;37.302;-121.982;2023-04-03T05:24:22;101204.0;;;23.22;31.82
48530;BME280;34927;37.302;-121.982;2023-04-03T05:25:27;101207.0;;;23.34;31.67
48530;BME280;34927;37.302;-121.982;2023-04-03T05:26:32;101208.0;;;23.24;31.82
48530;BME280;34927;37.302;-121.982;2023-04-03T05:27:37;101208.0;;;23.19;31.95
48530;BME280;34927;37.302;-121.982;2023-04-03T05:28:41;101208.0;;;23.26;31.87
48530;BME280;34927;37.302;-121.982;2023-04-03T05:29:46;101211.0;;;23.18;32.00
48530;BME280;34927;37.302;-121.982;2023-04-03T05:30:54;101212.0;;;23.12;32.22
48530;BME280;34927;37.302;-121.982;2023-04-03T05:31:56;101214.0;;;23.20;32.14
48530;BME280;34927;37.302;-121.982;2023-04-03T05:33:01;101211.0;;;23.12;32.23
48530;BME280;34927;37.302;-121.982;2023-04-03T05:34:06;101210.0;;;23.17;32.09
48530;BME280;34927;37.302;-121.982;2023-04-03T05:35:12;101208.0;;;23.19;32.06
48530;BME280;34927;37.302;-121.982;2023-04-03T05:36:17;101213.0;;;23.04;32.27
48530;BME280;34927;37.302;-121.982;2023-04-03T05:37:22;101210.0;;;23.02;32.26